Time;durP1;ratioP1;P1;durP2;ratioP2;P2;SDS_P1;SDS_P2;PMS_P1;PMS_P2;Temp;Humidity;BMP_temperature;BMP_pressure;BME280_temperature;BME280_humidity;BME280_pressure;Samples;Min_cycle;Max_cycle;Signal;HPM_P1;HPM_P2
2023/03/19 00:00:43;;;;;;;5.00;2.08;;;14.70;99.90;;;;;;4975861;28;20191;-75
2023/03/19 00:03:11;;;;;;;3.92;2.10;;;14.70;99.90;;;;;;4991552;28;20270;-77
2023/03/19 00:05:39;;;;;;;3.80;2.10;;;14.70;99.90;;;;;;4968399;28;20176;-74
2023/03/19 00:08:05;;;;;;;3.03;2.10;;;14.70;99.90;;;;;;4975789;28;20208;-78
2023/03/19 00:10:30;;;;;;;2.95;2.13;;;14.70;99.90;;;;;;4975854;28;20172;-74
2023/03/19 00:12:58;;;;;;;3.25;1.90;;;14.70;99.90;;;;;;4978444;28;20182;-77
2023/03/19 00:15:24;;;;;;;4.40;2.25;;;14.70;99.90;;;;;;4976660;28;20196;-78
2023/03/19 00:17:53;;;;;;;4.80;2.60;;;14.70;99.90;;;;;;4992024;28;20231;-76
2023/03/19 00:20:23;;;;;;;5.28;2.38;;;14.70;99.90;;;;;;4994450;28;20250;-78
2023/03/19 00:22:51;;;;;;;4.60;2.30;;;14.70;99.90;;;;;;4992244;28;20182;-78
2023/03/19 00:25:16;;;;;;;3.85;2.15;;;14.60;99.90;;;;;;4992264;28;20191;-76
2023/03/19 00:27:43;;;;;;;5.22;2.47;;;14.70;99.90;;;;;;4986585;28;20205;-75
2023/03/19 00:30:10;;;;;;;6.00;2.30;;;14.60;99.90;;;;;;4974981;28;20187;-77
2023/03/19 00:32:40;;;;;;;5.00;2.22;;;14.60;99.90;;;;;;4975467;28;20180;-77
2023/03/19 00:35:07;;;;;;;3.60;2.10;;;14.60;99.90;;;;;;4975470;28;20211;-74
2023/03/19 00:37:36;;;;;;;4.30;2.10;;;14.60;99.90;;;;;;4974842;28;20191;-77
2023/03/19 00:40:05;;;;;;;3.10;2.20;;;14.60;99.90;;;;;;4989981;28;20252;-77
2023/03/19 00:42:31;;;;;;;7.05;1.83;;;14.50;99.90;;;;;;4975364;28;20180;-77
2023/03/19 00:44:59;;;;;;;3.33;2.08;;;14.50;99.90;;;;;;4984752;28;20188;-75
2023/03/19 00:47:29;;;;;;;3.60;2.08;;;14.50;99.90;;;;;;4974964;28;20377;-76
2023/03/19 00:49:55;;;;;;;3.60;2.05;;;14.50;99.90;;;;;;4970917;28;20251;-76
2023/03/19 00:52:20;;;;;;;3.25;2.10;;;14.50;99.90;;;;;;4997673;28;20208;-75
2023/03/19 00:54:46;;;;;;;3.55;2.30;;;14.40;99.90;;;;;;4996211;28;20291;-77
2023/03/19 00:57:12;;;;;;;2.78;2.00;;;14.40;99.90;;;;;;4975396;28;20176;-78
2023/03/19 00:59:38;;;;;;;4.85;2.38;;;14.40;99.90;;;;;;4976000;28;20247;-77
2023/03/19 01:02:06;;;;;;;3.40;1.92;;;14.40;99.90;;;;;;4981894;28;20263;-76
2023/03/19 01:04:32;;;;;;;2.72;1.92;;;14.40;99.90;;;;;;4993206;28;20199;-78
2023/03/19 01:06:58;;;;;;;2.83;1.92;;;14.30;99.90;;;;;;4999884;28;20235;-75
2023/03/19 01:09:25;;;;;;;2.72;1.90;;;14.30;99.90;;;;;;4975908;28;20188;-76
2023/03/19 01:11:51;;;;;;;4.28;1.70;;;14.30;99.90;;;;;;4985590;28;20270;-78
2023/03/19 01:14:20;;;;;;;2.42;1.80;;;14.30;99.90;;;;;;4984278;28;20212;-77
2023/03/19 01:16:45;;;;;;;2.13;1.60;;;14.30;99.90;;;;;;4987805;28;20182;-76
2023/03/19 01:19:11;;;;;;;4.80;1.95;;;14.30;99.90;;;;;;4985313;28;20180;-77
2023/03/19 01:21:37;;;;;;;2.17;1.40;;;14.30;99.90;;;;;;4981803;28;20208;-78
2023/03/19 01:24:05;;;;;;;2.80;1.50;;;14.20;99.90;;;;;;4973211;28;20218;-77
2023/03/19 01:26:30;;;;;;;2.08;1.40;;;14.30;99.90;;;;;;4975190;28;20203;-78
2023/03/19 01:28:57;;;;;;;3.28;1.50;;;14.30;99.90;;;;;;4972475;28;20176;-79
2023/03/19 01:31:22;;;;;;;2.10;1.10;;;14.40;99.90;;;;;;4976584;28;20187;-78
2023/03/19 01:33:50;;;;;;;4.07;1.38;;;14.40;99.90;;;;;;4971589;28;20176;-79
2023/03/19 01:36:16;;;;;;;1.90;1.17;;;14.40;99.90;;;;;;4972373;28;20172;-78
2023/03/19 01:38:43;;;;;;;1.75;1.23;;;14.40;99.90;;;;;;4986044;28;20187;-75
2023/03/19 01:41:09;;;;;;;3.88;1.30;;;14.40;99.90;;;;;;4978485;28;20196;-76
2023/03/19 01:43:35;;;;;;;2.00;1.38;;;14.40;99.90;;;;;;4983000;28;20177;-75
2023/03/19 01:46:14;;;;;;;2.17;1.35;;;14.40;99.90;;;;;;4966764;28;20268;-78
2023/03/19 01:48:41;;;;;;;2.20;1.38;;;14.40;99.90;;;;;;4979041;28;20231;-78
2023/03/19 01:51:10;;;;;;;1.77;1.40;;;14.30;99.90;;;;;;4990130;28;20190;-78
2023/03/19 01:53:40;;;;;;;2.42;1.60;;;14.30;99.90;;;;;;4983304;28;20184;-77
2023/03/19 01:56:18;;;;;;;2.97;1.40;;;14.20;99.90;;;;;;4977180;28;20177;-78
2023/03/19 01:58:49;;;;;;;2.30;1.50;;;14.20;99.90;;;;;;4990892;28;20168;-78
2023/03/19 02:01:17;;;;;;;2.38;1.60;;;14.10;99.90;;;;;;4986648;28;20215;-78
2023/03/19 02:03:44;;;;;;;2.65;1.67;;;14.00;99.90;;;;;;4980128;28;20177;-78
2023/03/19 02:06:13;;;;;;;3.30;2.00;;;14.00;99.90;;;;;;4990835;28;20172;-74
2023/03/19 02:08:40;;;;;;;2.80;1.75;;;13.90;99.90;;;;;;4979499;28;20218;-77
2023/03/19 02:11:06;;;;;;;1.85;1.52;;;13.90;99.90;;;;;;4977697;28;20180;-75
2023/03/19 02:13:36;;;;;;;4.03;1.70;;;13.80;99.90;;;;;;4978109;28;20191;-76
2023/03/19 02:16:04;;;;;;;3.60;1.80;;;13.80;99.90;;;;;;4995076;28;20180;-74
2023/03/19 02:18:30;;;;;;;3.97;1.60;;;13.80;99.90;;;;;;4975963;28;20184;-78
2023/03/19 02:21:09;;;;;;;3.28;1.58;;;13.70;99.90;;;;;;4986842;28;20440;-78
2023/03/19 02:23:45;;;;;;;2.92;1.67;;;13.70;99.90;;;;;;4986260;28;20245;-78
2023/03/19 02:26:14;;;;;;;3.88;1.90;;;13.60;99.90;;;;;;5004425;28;20202;-79
2023/03/19 02:28:43;;;;;;;2.60;1.90;;;13.60;99.90;;;;;;4997456;28;20220;-68
2023/03/19 02:31:09;;;;;;;2.47;1.80;;;13.60;99.90;;;;;;4989141;28;20182;-68
2023/03/19 02:33:37;;;;;;;3.33;1.65;;;13.50;99.90;;;;;;4977899;28;20183;-70
2023/03/19 02:36:08;;;;;;;3.15;2.00;;;13.60;99.90;;;;;;4977536;28;20204;-68
2023/03/19 02:38:37;;;;;;;3.40;1.90;;;13.50;99.90;;;;;;4977848;28;20206;-68
2023/03/19 02:41:08;;;;;;;3.08;1.88;;;13.50;99.90;;;;;;4978103;28;20180;-69
2023/03/19 02:43:37;;;;;;;4.47;2.30;;;13.50;99.90;;;;;;4978020;28;20176;-67
2023/03/19 02:46:08;;;;;;;3.63;2.10;;;13.50;99.90;;;;;;4977946;28;20187;-67
2023/03/19 02:48:35;;;;;;;3.20;2.30;;;13.50;99.90;;;;;;4994349;28;20234;-69
2023/03/19 02:51:01;;;;;;;3.13;1.98;;;13.50;99.90;;;;;;4994015;28;20180;-67
2023/03/19 02:53:26;;;;;;;3.53;2.10;;;13.50;99.90;;;;;;4975991;28;20195;-67
2023/03/19 02:55:54;;;;;;;2.92;1.88;;;13.50;99.90;;;;;;4977581;28;20231;-67
2023/03/19 02:58:22;;;;;;;3.92;1.77;;;13.50;99.90;;;;;;4976611;28;20305;-68
2023/03/19 03:00:48;;;;;;;3.03;1.77;;;13.50;99.90;;;;;;4993690;28;20195;-63
2023/03/19 03:03:14;;;;;;;4.03;2.00;;;13.50;99.90;;;;;;4976032;28;20184;-64
2023/03/19 03:05:42;;;;;;;3.88;1.75;;;13.40;99.90;;;;;;4992651;28;20242;-68
2023/03/19 03:08:10;;;;;;;3.88;1.98;;;13.40;99.90;;;;;;4994817;28;20200;-67
2023/03/19 03:10:36;;;;;;;2.88;1.90;;;13.40;99.90;;;;;;4992323;28;20168;-66
2023/03/19 03:13:01;;;;;;;2.55;2.03;;;13.40;99.90;;;;;;4970834;28;20187;-67
2023/03/19 03:15:27;;;;;;;3.50;1.88;;;13.40;99.90;;;;;;4974636;28;20284;-67
2023/03/19 03:17:55;;;;;;;2.47;1.90;;;13.40;99.90;;;;;;4977068;28;20259;-68
2023/03/19 03:20:23;;;;;;;3.80;2.10;;;13.40;99.90;;;;;;4977187;28;20184;-67
2023/03/19 03:22:52;;;;;;;4.93;2.00;;;13.40;99.90;;;;;;4976077;28;20184;-65
2023/03/19 03:25:21;;;;;;;4.45;2.17;;;13.30;99.90;;;;;;4966476;28;20184;-68
2023/03/19 03:27:47;;;;;;;5.55;2.40;;;13.40;99.90;;;;;;4986121;28;20400;-67
2023/03/19 03:30:14;;;;;;;2.90;2.20;;;13.40;99.90;;;;;;4978732;28;20200;-67
2023/03/19 03:32:41;;;;;;;3.30;2.00;;;13.40;99.90;;;;;;4989093;28;20169;-69
2023/03/19 03:35:08;;;;;;;3.47;2.10;;;13.30;99.90;;;;;;4972192;28;20181;-67
2023/03/19 03:37:34;;;;;;;3.53;2.00;;;13.30;99.90;;;;;;4990710;28;20195;-67
2023/03/19 03:40:05;;;;;;;2.58;1.80;;;13.30;99.90;;;;;;4976734;28;20180;-67
2023/03/19 03:42:33;;;;;;;2.85;2.08;;;13.30;99.90;;;;;;4976256;28;20203;-67
2023/03/19 03:45:01;;;;;;;2.28;1.77;;;13.30;99.90;;;;;;4976612;28;20168;-67
2023/03/19 03:47:26;;;;;;;4.38;1.70;;;13.30;99.90;;;;;;4975863;28;20203;-67
2023/03/19 03:49:56;;;;;;;3.65;2.10;;;13.30;99.90;;;;;;4972326;28;20214;-67
2023/03/19 03:52:24;;;;;;;3.63;2.03;;;13.20;99.90;;;;;;4972079;28;20191;-63
2023/03/19 03:54:52;;;;;;;2.83;2.08;;;13.20;99.90;;;;;;4976248;28;20172;-66
2023/03/19 03:57:18;;;;;;;2.90;1.70;;;13.20;99.90;;;;;;4980899;28;20212;-67
2023/03/19 03:59:43;;;;;;;3.20;2.10;;;13.10;99.90;;;;;;4976722;28;20218;-67
2023/03/19 04:02:11;;;;;;;2.40;1.90;;;13.10;99.90;;;;;;4982867;28;20193;-67
2023/03/19 04:04:37;;;;;;;2.50;1.75;;;13.10;99.90;;;;;;4984926;28;20188;-67
2023/03/19 04:07:07;;;;;;;2.88;1.58;;;13.00;99.90;;;;;;4963879;28;20224;-67
2023/03/19 04:09:33;;;;;;;2.85;1.40;;;13.00;99.90;;;;;;4976557;28;20266;-67
2023/03/19 04:12:01;;;;;;;3.53;1.90;;;13.00;99.90;;;;;;4988300;28;20195;-66
2023/03/19 04:14:29;;;;;;;2.72;1.65;;;13.00;99.90;;;;;;4976170;28;20172;-67
2023/03/19 04:16:55;;;;;;;1.95;1.40;;;13.00;99.90;;;;;;4976582;28;20231;-65
2023/03/19 04:19:26;;;;;;;2.15;1.38;;;12.90;99.90;;;;;;4975122;28;20191;-68
2023/03/19 04:21:51;;;;;;;1.42;1.13;;;12.90;99.90;;;;;;4975394;28;20203;-67
2023/03/19 04:24:22;;;;;;;1.33;1.20;;;12.90;99.90;;;;;;4992137;28;20207;-64
2023/03/19 04:26:48;;;;;;;1.58;1.10;;;12.90;99.90;;;;;;4975798;28;20196;-69
2023/03/19 04:29:14;;;;;;;1.52;1.13;;;12.90;99.90;;;;;;4975390;28;20203;-66
2023/03/19 04:31:42;;;;;;;1.70;1.15;;;13.00;99.90;;;;;;4970221;28;20176;-67
2023/03/19 04:34:10;;;;;;;2.10;1.33;;;13.00;99.90;;;;;;4973305;28;20251;-67
2023/03/19 04:36:37;;;;;;;1.85;1.08;;;13.00;99.90;;;;;;4987689;28;20188;-65
2023/03/19 04:39:03;;;;;;;2.85;1.42;;;13.10;99.90;;;;;;4983371;28;20187;-68
2023/03/19 04:41:31;;;;;;;2.33;1.40;;;13.10;99.90;;;;;;4975172;28;20193;-66
2023/03/19 04:43:57;;;;;;;2.65;1.38;;;13.10;99.90;;;;;;4991371;28;20176;-67
2023/03/19 04:46:22;;;;;;;2.10;1.48;;;13.10;99.90;;;;;;4975647;28;20167;-66
2023/03/19 04:48:48;;;;;;;2.00;1.30;;;13.10;99.90;;;;;;4974406;28;20211;-67
2023/03/19 04:51:16;;;;;;;2.47;1.20;;;13.10;99.90;;;;;;4969482;28;20184;-66
2023/03/19 04:53:42;;;;;;;1.80;1.27;;;13.10;99.90;;;;;;4975354;28;20195;-67
2023/03/19 04:56:10;;;;;;;1.42;1.00;;;13.00;99.90;;;;;;4983616;28;20191;-65
2023/03/19 04:58:38;;;;;;;1.25;1.02;;;13.00;99.90;;;;;;4956215;29;20172;-68
2023/03/19 05:01:04;;;;;;;1.55;0.90;;;13.10;99.90;;;;;;4973890;28;20192;-67
2023/03/19 05:03:30;;;;;;;1.90;0.93;;;13.00;99.90;;;;;;4989413;28;20262;-67
2023/03/19 05:05:58;;;;;;;1.13;0.90;;;13.00;99.90;;;;;;4959566;28;20172;-67
2023/03/19 05:08:25;;;;;;;1.00;0.80;;;13.00;99.90;;;;;;4959474;28;20251;-67
2023/03/19 05:10:53;;;;;;;1.17;0.77;;;13.10;99.90;;;;;;4985567;28;20212;-69
2023/03/19 05:13:19;;;;;;;1.98;0.88;;;13.10;99.90;;;;;;4966931;28;20255;-67
2023/03/19 05:15:45;;;;;;;1.00;0.80;;;13.10;99.90;;;;;;4972182;28;20507;-64
2023/03/19 05:18:11;;;;;;;1.33;0.80;;;13.10;99.90;;;;;;4972113;28;20185;-66
2023/03/19 05:20:37;;;;;;;1.48;0.70;;;13.10;99.90;;;;;;4973035;28;20208;-66
2023/03/19 05:23:03;;;;;;;1.08;0.63;;;13.10;99.90;;;;;;4974209;28;20202;-65
2023/03/19 05:25:29;;;;;;;1.38;0.90;;;13.10;99.90;;;;;;4973962;28;20176;-67
2023/03/19 05:27:55;;;;;;;1.70;0.80;;;13.10;99.90;;;;;;4977767;28;20203;-68
2023/03/19 05:30:21;;;;;;;2.08;0.70;;;13.10;99.90;;;;;;4966510;28;20215;-64
2023/03/19 05:32:47;;;;;;;1.20;0.90;;;13.10;99.90;;;;;;4973809;28;20177;-64
2023/03/19 05:35:16;;;;;;;1.15;0.77;;;13.20;99.90;;;;;;4977965;28;20226;-65
2023/03/19 05:37:41;;;;;;;1.45;0.90;;;13.10;99.90;;;;;;4993169;28;20195;-68
2023/03/19 05:40:11;;;;;;;1.10;0.80;;;13.20;99.90;;;;;;4978251;28;20183;-67
2023/03/19 05:42:36;;;;;;;0.90;0.75;;;13.20;99.90;;;;;;4991128;28;20319;-67
2023/03/19 05:45:05;;;;;;;1.13;0.80;;;13.20;99.90;;;;;;4975725;28;20216;-67
2023/03/19 05:47:31;;;;;;;1.00;0.63;;;13.20;99.90;;;;;;4977942;28;20217;-66
2023/03/19 05:49:59;;;;;;;0.80;0.60;;;13.30;99.90;;;;;;4975012;28;20173;-68
2023/03/19 05:52:27;;;;;;;1.23;0.80;;;13.20;99.90;;;;;;4959094;29;20173;-67
2023/03/19 05:54:54;;;;;;;1.58;0.80;;;13.30;99.90;;;;;;4972289;28;20209;-68
2023/03/19 05:57:22;;;;;;;1.52;0.70;;;13.30;99.90;;;;;;4984800;28;20177;-67
2023/03/19 05:59:48;;;;;;;1.45;0.73;;;13.30;99.90;;;;;;4976496;28;20231;-66
2023/03/19 06:02:14;;;;;;;1.13;0.80;;;13.40;99.90;;;;;;4993943;28;20311;-67
2023/03/19 06:04:42;;;;;;;1.20;0.90;;;13.40;99.90;;;;;;4978042;28;20240;-67
2023/03/19 06:07:08;;;;;;;1.50;0.80;;;13.40;99.90;;;;;;4977640;28;20230;-67
2023/03/19 06:09:34;;;;;;;2.53;0.90;;;13.40;99.90;;;;;;4975871;28;20200;-63
2023/03/19 06:12:00;;;;;;;0.75;0.70;;;13.40;99.90;;;;;;4977110;28;20223;-67
2023/03/19 06:14:30;;;;;;;1.08;0.70;;;13.40;99.90;;;;;;4976820;28;20192;-66
2023/03/19 06:17:00;;;;;;;1.80;0.85;;;13.50;99.90;;;;;;4976187;28;20179;-65
2023/03/19 06:19:26;;;;;;;1.02;0.77;;;13.40;99.90;;;;;;4969799;28;20274;-67
2023/03/19 06:21:51;;;;;;;1.35;0.90;;;13.50;99.90;;;;;;4970972;28;20271;-67
2023/03/19 06:24:20;;;;;;;1.15;0.90;;;13.50;99.90;;;;;;4973889;28;20180;-67
2023/03/19 06:26:45;;;;;;;1.02;0.90;;;13.50;99.90;;;;;;4977836;28;20254;-67
2023/03/19 06:29:11;;;;;;;6.90;5.28;;;13.60;99.90;;;;;;4990246;28;20172;-68
2023/03/19 06:31:38;;;;;;;3.53;2.85;;;13.60;99.90;;;;;;4991436;28;20183;-66
2023/03/19 06:34:09;;;;;;;3.03;1.90;;;13.60;99.90;;;;;;4971716;28;20200;-66
2023/03/19 06:36:34;;;;;;;1.90;1.50;;;13.60;99.90;;;;;;4973433;28;20232;-67
2023/03/19 06:39:01;;;;;;;1.60;1.08;;;13.60;99.90;;;;;;4983759;28;20323;-67
2023/03/19 06:41:33;;;;;;;1.73;1.00;;;13.60;99.90;;;;;;4989528;28;20274;-66
2023/03/19 06:44:01;;;;;;;1.27;1.00;;;13.70;99.90;;;;;;4970559;28;20196;-67
2023/03/19 06:46:27;;;;;;;1.00;0.88;;;13.70;99.90;;;;;;4977522;28;20211;-66
2023/03/19 06:48:54;;;;;;;1.20;0.80;;;13.70;99.90;;;;;;4976904;28;20204;-67
2023/03/19 06:51:20;;;;;;;3.40;1.60;;;13.70;99.90;;;;;;4977230;28;20196;-64
2023/03/19 06:53:46;;;;;;;1.50;1.00;;;13.80;99.90;;;;;;4991841;28;20176;-68
2023/03/19 06:56:14;;;;;;;1.45;1.10;;;13.80;99.90;;;;;;4977430;28;20183;-67
2023/03/19 06:58:42;;;;;;;2.00;1.10;;;13.80;99.90;;;;;;4979568;28;20267;-67
2023/03/19 07:01:08;;;;;;;2.30;1.17;;;13.90;99.90;;;;;;4976250;28;20184;-67
2023/03/19 07:03:33;;;;;;;1.55;1.00;;;13.90;99.90;;;;;;4981350;28;20341;-67
2023/03/19 07:06:01;;;;;;;0.63;0.63;;;13.90;99.90;;;;;;4993186;28;20227;-67
2023/03/19 07:08:28;;;;;;;1.00;0.77;;;13.90;99.90;;;;;;4971684;28;20192;-67
2023/03/19 07:10:55;;;;;;;1.20;1.00;;;14.00;99.90;;;;;;4968525;28;20187;-66
2023/03/19 07:13:24;;;;;;;0.75;0.68;;;14.00;99.90;;;;;;4976911;28;20204;-68
2023/03/19 07:15:50;;;;;;;1.58;0.90;;;14.00;99.90;;;;;;4979144;28;20176;-68
2023/03/19 07:18:15;;;;;;;0.95;0.80;;;14.10;99.90;;;;;;4989187;28;20180;-67
2023/03/19 07:20:44;;;;;;;1.73;1.30;;;14.10;99.90;;;;;;4990302;28;20180;-67
2023/03/19 07:23:10;;;;;;;3.40;1.77;;;14.20;99.90;;;;;;4967898;28;20288;-67
2023/03/19 07:25:38;;;;;;;1.48;1.15;;;14.20;99.90;;;;;;4983086;28;20208;-67
2023/03/19 07:28:04;;;;;;;2.08;1.58;;;14.20;99.90;;;;;;4975977;28;20192;-67
2023/03/19 07:30:30;;;;;;;1.60;1.20;;;14.20;99.90;;;;;;4974672;28;20176;-67
2023/03/19 07:32:56;;;;;;;2.58;1.20;;;14.30;99.90;;;;;;4976709;28;20196;-67
2023/03/19 07:35:21;;;;;;;1.10;0.90;;;14.40;99.90;;;;;;4976659;28;20191;-68
2023/03/19 07:37:49;;;;;;;2.63;1.00;;;14.40;99.90;;;;;;4974608;28;20195;-65
2023/03/19 07:40:15;;;;;;;2.22;1.63;;;14.40;99.90;;;;;;4985195;28;20199;-65
2023/03/19 07:42:43;;;;;;;3.13;2.40;;;14.40;99.90;;;;;;4969940;28;20177;-67
2023/03/19 07:45:11;;;;;;;2.38;1.88;;;14.50;99.90;;;;;;4990023;28;20184;-68
2023/03/19 07:47:39;;;;;;;2.08;1.38;;;14.50;99.90;;;;;;4969368;28;20303;-67
2023/03/19 07:50:06;;;;;;;1.77;1.40;;;14.50;99.90;;;;;;4987743;28;20169;-68
2023/03/19 07:52:31;;;;;;;1.35;1.00;;;14.60;99.90;;;;;;4969273;28;20172;-68
2023/03/19 07:54:57;;;;;;;1.63;1.00;;;14.50;99.90;;;;;;4971388;28;20194;-68
2023/03/19 07:57:24;;;;;;;1.33;1.00;;;14.60;99.90;;;;;;4975967;28;20176;-69
2023/03/19 07:59:50;;;;;;;1.13;1.00;;;14.70;99.90;;;;;;4975045;28;20242;-67
2023/03/19 08:02:16;;;;;;;0.80;0.80;;;14.80;99.90;;;;;;4986790;28;20199;-68
2023/03/19 08:04:45;;;;;;;1.70;1.00;;;14.80;99.90;;;;;;4976708;28;20191;-68
2023/03/19 08:07:15;;;;;;;1.58;0.80;;;14.80;99.90;;;;;;4973403;28;20206;-67
2023/03/19 08:09:41;;;;;;;0.90;0.80;;;14.70;99.90;;;;;;4970793;28;20181;-69
2023/03/19 08:12:07;;;;;;;0.88;0.80;;;14.80;99.90;;;;;;4974892;28;20207;-69
2023/03/19 08:14:33;;;;;;;1.40;0.90;;;14.80;99.90;;;;;;4982827;28;20194;-68
2023/03/19 08:16:59;;;;;;;1.42;0.90;;;14.80;99.90;;;;;;4988833;28;20168;-64
2023/03/19 08:19:27;;;;;;;2.72;2.40;;;14.80;99.90;;;;;;4988245;28;20187;-69
2023/03/19 08:21:53;;;;;;;2.88;1.83;;;14.90;99.90;;;;;;4979621;28;20291;-66
2023/03/19 08:24:21;;;;;;;1.75;1.20;;;14.90;99.90;;;;;;4975440;28;20200;-66
2023/03/19 08:26:46;;;;;;;1.48;1.00;;;14.90;99.90;;;;;;4976031;28;20180;-67
2023/03/19 08:29:14;;;;;;;1.55;1.13;;;15.00;99.90;;;;;;4992250;28;20178;-69
2023/03/19 08:31:40;;;;;;;1.73;1.02;;;15.00;99.90;;;;;;4972468;28;20225;-67
2023/03/19 08:34:10;;;;;;;2.10;0.95;;;15.10;99.90;;;;;;4968041;28;20212;-67
2023/03/19 08:36:38;;;;;;;1.70;1.17;;;15.10;99.90;;;;;;4972923;28;20196;-68
2023/03/19 08:39:06;;;;;;;1.40;1.00;;;15.10;99.90;;;;;;4977162;28;20181;-68
2023/03/19 08:41:31;;;;;;;1.15;0.80;;;15.10;99.90;;;;;;4984816;28;20177;-68
2023/03/19 08:43:57;;;;;;;1.50;1.00;;;15.20;99.90;;;;;;4972592;28;20236;-68
2023/03/19 08:46:22;;;;;;;1.15;1.00;;;15.20;99.90;;;;;;4980815;28;20193;-68
2023/03/19 08:48:50;;;;;;;3.03;1.00;;;15.20;99.90;;;;;;4967510;28;20204;-67
2023/03/19 08:51:16;;;;;;;2.38;1.00;;;15.20;99.90;;;;;;4975967;28;20176;-66
2023/03/19 08:53:43;;;;;;;1.20;1.10;;;15.20;99.90;;;;;;4975241;28;20271;-67
2023/03/19 08:56:12;;;;;;;1.52;1.10;;;15.20;99.90;;;;;;4975235;28;20486;-66
2023/03/19 08:58:41;;;;;;;1.20;1.02;;;15.30;99.90;;;;;;4972241;28;20192;-67
2023/03/19 09:01:11;;;;;;;1.10;1.00;;;15.30;99.90;;;;;;4971624;28;20184;-67
2023/03/19 09:03:38;;;;;;;1.50;1.20;;;15.20;99.90;;;;;;4978991;28;20208;-67
2023/03/19 09:06:06;;;;;;;1.95;1.00;;;15.20;99.90;;;;;;4979633;28;20353;-67
2023/03/19 09:08:33;;;;;;;1.80;1.30;;;15.20;99.90;;;;;;4976421;28;20201;-66
2023/03/19 09:10:58;;;;;;;1.20;1.10;;;15.20;99.90;;;;;;4968868;28;20274;-67
2023/03/19 09:13:27;;;;;;;2.40;1.40;;;15.10;99.90;;;;;;4979425;28;20266;-68
2023/03/19 09:15:53;;;;;;;2.55;1.27;;;15.10;99.90;;;;;;4979411;28;20236;-67
2023/03/19 09:18:27;;;;;;;1.40;1.10;;;15.10;99.90;;;;;;4979332;28;20194;-67
2023/03/19 09:20:54;;;;;;;1.73;1.20;;;15.10;99.90;;;;;;4981975;28;20172;-68
2023/03/19 09:23:24;;;;;;;2.00;1.20;;;15.10;99.90;;;;;;4979271;28;20183;-68
2023/03/19 09:25:50;;;;;;;2.40;1.27;;;15.10;99.90;;;;;;4978809;28;20184;-70
2023/03/19 09:28:16;;;;;;;1.50;1.27;;;15.00;99.90;;;;;;4976553;28;20198;-68
2023/03/19 09:30:42;;;;;;;1.42;1.20;;;15.00;99.90;;;;;;4972879;28;20230;-70
2023/03/19 09:33:10;;;;;;;1.35;1.02;;;14.90;99.90;;;;;;4978986;28;20179;-69
2023/03/19 09:35:38;;;;;;;2.13;1.20;;;14.90;99.90;;;;;;4973120;28;20200;-68
2023/03/19 09:38:06;;;;;;;1.67;1.30;;;14.90;99.90;;;;;;4970878;28;20219;-69
2023/03/19 09:40:42;;;;;;;1.48;1.13;;;14.90;99.90;;;;;;4977405;28;20270;-66
2023/03/19 09:43:23;;;;;;;1.92;1.40;;;15.00;99.90;;;;;;4987763;28;20275;-69
2023/03/19 09:45:51;;;;;;;1.75;1.35;;;15.00;99.90;;;;;;4981642;28;20250;-67
2023/03/19 09:48:39;;;;;;;1.85;1.40;;;15.00;99.90;;;;;;4962427;28;20216;-68
2023/03/19 09:51:15;;;;;;;2.00;1.70;;;15.10;99.90;;;;;;4978895;28;20231;-67
2023/03/19 09:53:50;;;;;;;3.05;1.40;;;15.10;99.90;;;;;;4975762;28;20176;-67
2023/03/19 09:56:18;;;;;;;1.30;1.20;;;15.10;99.90;;;;;;4984696;28;20167;-71
2023/03/19 09:58:44;;;;;;;1.52;1.30;;;15.20;99.90;;;;;;4978304;28;20243;-70
2023/03/19 10:01:34;;;;;;;2.22;1.33;;;15.10;99.90;;;;;;4975192;28;20205;-69
2023/03/19 10:04:04;;;;;;;2.60;1.30;;;15.20;99.90;;;;;;4976090;28;20231;-68
2023/03/19 10:06:39;;;;;;;2.15;1.35;;;15.10;99.90;;;;;;4994504;28;20184;-70
2023/03/19 10:09:32;;;;;;;1.77;1.45;;;15.20;99.90;;;;;;4978658;28;20176;-69
2023/03/19 10:12:00;;;;;;;2.47;1.58;;;15.10;99.90;;;;;;4978193;28;20350;-66
2023/03/19 10:15:00;;;;;;;2.45;1.77;;;15.10;99.90;;;;;;4994554;28;20291;-64
2023/03/19 10:17:34;;;;;;;2.30;1.60;;;15.10;99.90;;;;;;4965502;28;20356;-64
2023/03/19 10:20:20;;;;;;;2.38;1.50;;;15.20;99.90;;;;;;4978036;28;20210;-67
2023/03/19 10:22:58;;;;;;;2.38;1.70;;;15.40;99.90;;;;;;4976400;28;20187;-64
2023/03/19 10:25:28;;;;;;;2.78;1.83;;;15.60;99.90;;;;;;4993908;28;20268;-64
2023/03/19 10:28:00;;;;;;;2.78;2.00;;;15.90;99.90;;;;;;4986380;28;20196;-67
2023/03/19 10:30:31;;;;;;;2.47;1.70;;;16.10;99.90;;;;;;4993427;28;20180;-67
2023/03/19 10:33:35;;;;;;;2.83;1.90;;;16.30;99.90;;;;;;4990521;28;20180;-68
2023/03/19 10:36:13;;;;;;;1.67;1.35;;;16.50;99.90;;;;;;4993403;28;20182;-65
2023/03/19 10:38:41;;;;;;;2.55;1.52;;;16.70;99.90;;;;;;4977007;28;20282;-64
2023/03/19 10:41:28;;;;;;;1.73;1.20;;;16.70;99.90;;;;;;4977057;28;20200;-67
2023/03/19 10:44:01;;;;;;;1.80;1.27;;;16.70;99.90;;;;;;4988785;28;20183;-68
2023/03/19 10:46:29;;;;;;;2.42;1.50;;;16.60;99.90;;;;;;4976330;28;20184;-68
2023/03/19 10:48:57;;;;;;;2.22;1.67;;;16.60;99.90;;;;;;4976465;28;20200;-67
2023/03/19 10:51:26;;;;;;;1.92;1.48;;;16.50;99.90;;;;;;4982403;28;20230;-68
2023/03/19 10:53:54;;;;;;;2.53;1.60;;;16.40;99.90;;;;;;4984822;28;20200;-68
2023/03/19 10:56:26;;;;;;;2.85;1.45;;;16.40;99.90;;;;;;5006943;28;20263;-65
2023/03/19 10:59:00;;;;;;;3.35;1.70;;;16.30;99.90;;;;;;4973619;28;20208;-68
2023/03/19 11:01:33;;;;;;;2.28;1.50;;;16.20;99.90;;;;;;4975973;28;20226;-67
2023/03/19 11:04:01;;;;;;;2.50;1.40;;;16.10;99.90;;;;;;4973415;28;20204;-66
2023/03/19 11:06:26;;;;;;;2.80;1.42;;;16.00;99.90;;;;;;4970170;28;20185;-66
2023/03/19 11:08:55;;;;;;;1.60;1.40;;;16.00;99.90;;;;;;4992600;28;20204;-68
2023/03/19 11:11:35;;;;;;;2.08;1.50;;;16.00;99.90;;;;;;4991783;28;20176;-66
2023/03/19 11:14:11;;;;;;;1.67;1.35;;;15.90;99.90;;;;;;4996272;28;20168;-68
2023/03/19 11:16:54;;;;;;;1.70;1.45;;;15.90;99.90;;;;;;4989446;28;20204;-68
2023/03/19 11:19:23;;;;;;;1.83;1.40;;;16.00;99.90;;;;;;4974168;28;20169;-68
2023/03/19 11:22:02;;;;;;;1.65;1.33;;;16.00;99.90;;;;;;4975697;28;20206;-68
2023/03/19 11:24:32;;;;;;;1.88;1.35;;;16.00;99.90;;;;;;4976327;28;20180;-67
2023/03/19 11:26:58;;;;;;;2.63;1.50;;;16.00;99.90;;;;;;4975026;28;20180;-68
2023/03/19 11:29:27;;;;;;;1.73;1.40;;;16.10;99.90;;;;;;4972644;28;20183;-68
2023/03/19 11:32:00;;;;;;;2.80;1.52;;;16.20;99.90;;;;;;4995246;28;20207;-68
2023/03/19 11:34:51;;;;;;;2.67;1.50;;;16.20;99.90;;;;;;4976242;28;20195;-68
2023/03/19 11:37:46;;;;;;;2.58;1.42;;;16.30;99.90;;;;;;4971250;28;20191;-69
2023/03/19 11:40:33;;;;;;;2.13;1.60;;;16.40;99.90;;;;;;4982272;28;20295;-67
2023/03/19 11:43:07;;;;;;;2.90;1.52;;;16.50;99.90;;;;;;4991467;28;20164;-68
2023/03/19 11:46:19;;;;;;;1.75;1.40;;;16.50;99.90;;;;;;4991731;28;20179;-70
2023/03/19 11:49:23;;;;;;;2.10;1.38;;;16.60;99.90;;;;;;4975007;28;20263;-68
2023/03/19 11:52:21;;;;;;;2.47;1.40;;;16.60;99.90;;;;;;4977075;28;20215;-67
2023/03/19 11:55:21;;;;;;;2.33;1.20;;;16.70;99.90;;;;;;4961203;28;20184;-69
2023/03/19 11:58:01;;;;;;;1.85;1.35;;;16.70;99.90;;;;;;4980325;28;20208;-65
2023/03/19 12:00:42;;;;;;;2.10;1.30;;;16.80;99.90;;;;;;4974835;28;20204;-67
2023/03/19 12:03:27;;;;;;;2.25;1.10;;;16.80;99.90;;;;;;4976941;28;20190;-68
2023/03/19 12:06:17;;;;;;;1.38;1.02;;;16.90;99.90;;;;;;4991483;28;20200;-68
2023/03/19 12:09:00;;;;;;;1.65;1.10;;;17.00;99.90;;;;;;4967660;28;20195;-67
2023/03/19 12:11:41;;;;;;;1.20;0.90;;;17.30;99.90;;;;;;4972313;28;20508;-65
2023/03/19 12:14:25;;;;;;;1.40;0.90;;;17.40;99.90;;;;;;4987731;28;20172;-68
2023/03/19 12:17:03;;;;;;;1.02;0.93;;;17.50;99.90;;;;;;4974367;28;20172;-67
2023/03/19 12:19:50;;;;;;;1.73;1.38;;;17.60;99.90;;;;;;4986666;28;20240;-63
2023/03/19 12:22:42;;;;;;;1.10;1.00;;;17.70;99.90;;;;;;4963858;28;20207;-69
2023/03/19 12:25:45;;;;;;;1.45;1.20;;;17.70;99.90;;;;;;4947257;28;20203;-68
2023/03/19 12:28:34;;;;;;;2.47;1.20;;;17.80;99.90;;;;;;4983634;28;20217;-66
2023/03/19 12:31:20;;;;;;;1.92;1.20;;;17.90;99.90;;;;;;4963705;28;20180;-66
2023/03/19 12:34:06;;;;;;;3.80;1.42;;;18.00;99.90;;;;;;4994920;28;20226;-67
2023/03/19 12:36:41;;;;;;;1.58;1.40;;;18.00;99.90;;;;;;4975239;28;20164;-69
2023/03/19 12:39:14;;;;;;;2.17;1.23;;;18.00;99.90;;;;;;4974557;28;20200;-68
2023/03/19 12:41:43;;;;;;;2.58;1.50;;;17.90;99.90;;;;;;4968059;28;20191;-67
2023/03/19 12:44:27;;;;;;;1.95;1.70;;;17.90;99.90;;;;;;4974530;28;20196;-66
2023/03/19 12:47:31;;;;;;;1.92;1.20;;;17.90;99.90;;;;;;4991443;28;20186;-68
2023/03/19 12:50:09;;;;;;;1.85;1.15;;;18.00;99.90;;;;;;4971911;28;20192;-69
2023/03/19 12:52:39;;;;;;;1.20;0.90;;;18.20;99.90;;;;;;4990919;28;20196;-69
2023/03/19 12:55:12;;;;;;;2.22;1.30;;;18.30;99.90;;;;;;4991581;28;20207;-68
2023/03/19 12:57:43;;;;;;;2.65;1.48;;;18.40;99.90;;;;;;4971928;28;20204;-66
2023/03/19 13:00:26;;;;;;;1.67;1.10;;;18.50;99.90;;;;;;4972225;28;20184;-68
2023/03/19 13:02:52;;;;;;;1.58;1.17;;;18.60;99.90;;;;;;4981295;28;20186;-65